Time;durP1;ratioP1;P1;durP2;ratioP2;P2;SDS_P1;SDS_P2;PMS_P1;PMS_P2;Temp;Humidity;BMP_temperature;BMP_pressure;BME280_temperature;BME280_humidity;BME280_pressure;Samples;Min_cycle;Max_cycle;Signal;HPM_P1;HPM_P2
2023/08/29 00:01:47;;;;;;;184.03;9.80;;;;;;;24.11;54.65;98769.94;7286939;19;130412;-36
2023/08/29 00:04:14;;;;;;;169.48;9.02;;;;;;;24.10;54.33;98763.84;7281873;19;129952;-36
2023/08/29 00:06:40;;;;;;;156.75;8.55;;;;;;;24.07;54.25;98753.72;7283935;19;129676;-36
2023/08/29 00:09:05;;;;;;;196.77;10.00;;;;;;;24.00;54.97;98742.25;7287343;19;131604;-36
2023/08/29 00:11:31;;;;;;;177.23;9.43;;;;;;;24.10;54.53;98749.91;7286269;19;129161;-36
2023/08/29 00:13:56;;;;;;;281.90;15.60;;;;;;;23.94;54.84;98726.38;7283523;19;129508;-36
2023/08/29 00:16:22;;;;;;;145.27;7.87;;;;;;;24.11;54.85;98760.22;7285166;19;131287;-35
2023/08/29 00:18:47;;;;;;;236.97;11.77;;;;;;;24.10;55.32;98763.84;7284118;19;129767;-36
2023/08/29 00:21:13;;;;;;;152.10;7.93;;;;;;;24.09;54.85;98759.59;7287721;19;130411;-36
2023/08/29 00:23:38;;;;;;;190.13;9.93;;;;;;;24.09;54.73;98762.22;7281808;19;129955;-36
2023/08/29 00:26:04;;;;;;;124.30;6.60;;;;;;;24.08;55.10;98771.09;7282662;19;129784;-36
2023/08/29 00:28:29;;;;;;;182.23;9.33;;;;;;;24.11;55.36;98772.56;7285553;19;129599;-36
2023/08/29 00:30:54;;;;;;;176.23;9.23;;;;;;;24.09;55.26;98774.53;7283741;19;129421;-36
2023/08/29 00:33:20;;;;;;;193.07;9.50;;;;;;;24.09;54.43;98774.53;7284900;19;130065;-35
2023/08/29 00:35:46;;;;;;;210.63;11.17;;;;;;;24.07;54.74;98769.47;7282224;19;129814;-36
2023/08/29 00:38:12;;;;;;;157.07;7.80;;;;;;;24.05;54.76;98760.09;7285302;19;129673;-40
2023/08/29 00:40:37;;;;;;;189.50;9.73;;;;;;;23.91;54.81;98727.53;7285630;19;130903;-36
2023/08/29 00:43:02;;;;;;;148.63;7.60;;;;;;;24.04;55.04;98758.50;7283914;19;131552;-36
2023/08/29 00:45:32;;;;;;;226.97;11.53;;;;;;;23.94;55.08;98753.44;7288471;19;130206;-36
2023/08/29 00:47:58;;;;;;;214.23;10.82;;;;;;;23.96;54.46;98745.38;7290951;19;129980;-35
2023/08/29 00:50:25;;;;;;;109.82;5.88;;;;;;;24.05;54.31;98779.31;7293119;19;129074;-35
2023/08/29 00:52:57;;;;;;;180.52;9.63;;;;;;;24.02;54.90;98777.03;7290378;19;129212;-37
2023/08/29 00:55:23;;;;;;;193.48;10.57;;;;;;;24.02;54.33;98771.78;7289950;19;130163;-36
2023/08/29 00:57:50;;;;;;;219.10;10.97;;;;;;;23.94;54.41;98753.44;7291731;19;130262;-35
2023/08/29 01:00:16;;;;;;;170.88;8.52;;;;;;;24.02;55.04;98760.47;7290001;19;132099;-36
2023/08/29 01:02:41;;;;;;;161.50;8.57;;;;;;;24.02;54.46;98758.66;7288161;19;131298;-36
2023/08/29 01:05:06;;;;;;;179.47;9.47;;;;;;;24.02;54.68;98761.28;7288827;19;132173;-36
2023/08/29 01:07:32;;;;;;;183.90;9.13;;;;;;;24.02;54.93;98758.66;7281976;19;130575;-37
2023/08/29 01:09:57;;;;;;;148.00;7.77;;;;;;;24.01;55.09;98749.16;7289167;19;129283;-37
2023/08/29 01:12:37;;;;;;;179.53;9.30;;;;;;;24.02;55.11;98756.03;7289926;19;133843;-35
2023/08/29 01:15:12;;;;;;;211.18;10.68;;;;;;;24.01;55.49;98754.41;7289239;19;130161;-36
2023/08/29 01:17:47;;;;;;;185.20;9.35;;;;;;;24.03;54.78;98746.38;7288886;19;130418;-36
2023/08/29 01:20:13;;;;;;;222.50;11.05;;;;;;;24.04;54.34;98743.56;7286095;19;129776;-36
2023/08/29 01:22:54;;;;;;;165.93;8.55;;;;;;;24.03;55.96;98741.91;7289556;19;129812;-35
2023/08/29 01:25:28;;;;;;;177.80;9.00;;;;;;;24.03;54.38;98741.13;7288736;19;130825;-37
2023/08/29 01:27:54;;;;;;;176.38;9.02;;;;;;;23.96;54.57;98735.72;7291647;19;131359;-36
2023/08/29 01:30:21;;;;;;;150.63;8.17;;;;;;;23.85;54.64;98712.47;7289818;19;129894;-35
2023/08/29 01:32:47;;;;;;;214.88;10.75;;;;;;;23.99;54.86;98734.56;7288688;19;130153;-36
2023/08/29 01:35:14;;;;;;;160.10;8.17;;;;;;;23.97;55.18;98726.84;7287741;19;129409;-36
2023/08/29 01:37:39;;;;;;;138.82;7.20;;;;;;;24.02;55.25;98713.19;7292621;19;131366;-36
2023/08/29 01:40:06;;;;;;;203.97;10.63;;;;;;;23.84;55.06;98689.03;7290071;19;129355;-37
2023/08/29 01:42:32;;;;;;;201.55;10.15;;;;;;;23.97;55.37;98703.19;7290313;19;130585;-36
2023/08/29 01:44:57;;;;;;;174.50;8.97;;;;;;;23.97;54.51;98699.75;7287425;19;130357;-36
2023/08/29 01:47:22;;;;;;;155.17;8.00;;;;;;;23.98;54.92;98698.81;7287999;19;130594;-36
2023/08/29 01:49:50;;;;;;;124.10;6.80;;;;;;;23.99;54.78;98703.06;7289771;19;129665;-37
2023/08/29 01:52:15;;;;;;;196.73;9.73;;;;;;;23.99;54.63;98697.81;7290190;19;130217;-35
2023/08/29 01:54:41;;;;;;;180.30;9.93;;;;;;;23.97;54.50;98695.31;7289094;19;130191;-36
2023/08/29 01:57:09;;;;;;;158.30;8.57;;;;;;;23.96;54.76;98693.72;7285783;19;130171;-36
2023/08/29 01:59:35;;;;;;;170.38;8.82;;;;;;;23.87;54.75;98668.50;7291133;19;130125;-35
2023/08/29 02:02:02;;;;;;;;;;;;;;;23.95;56.90;98680.72;7290812;19;130139;-36
2023/08/29 02:04:28;;;;;;;182.77;9.57;;;;;;;23.95;54.64;98691.22;7283936;19;130231;-36
2023/08/29 02:06:53;;;;;;;157.73;8.65;;;;;;;23.96;54.94;98690.25;7287734;19;130054;-35
2023/08/29 02:09:19;;;;;;;167.43;8.90;;;;;;;23.95;55.04;98697.31;7289021;19;132224;-36
2023/08/29 02:11:44;;;;;;;189.20;9.87;;;;;;;23.96;54.72;98688.47;7288692;19;130314;-36
2023/08/29 02:14:11;;;;;;;194.07;10.13;;;;;;;23.98;54.75;98686.47;7287284;19;130669;-35
2023/08/29 02:16:36;;;;;;;169.70;9.10;;;;;;;23.97;55.22;98689.25;7289197;19;131218;-34
2023/08/29 02:19:02;;;;;;;161.40;8.73;;;;;;;23.94;54.82;98674.69;7288532;19;129404;-35
2023/08/29 02:21:28;;;;;;;214.20;11.00;;;;;;;23.94;55.12;98672.06;7289542;19;129592;-37
2023/08/29 02:23:53;;;;;;;238.93;13.77;;;;;;;23.96;54.99;98654.31;7286981;19;131479;-35
2023/08/29 02:26:18;;;;;;;152.60;8.37;;;;;;;23.95;54.82;98641.34;7288006;19;130866;-35
2023/08/29 02:28:44;;;;;;;194.63;10.20;;;;;;;23.94;55.11;98626.59;7289558;19;130414;-35
2023/08/29 02:31:10;;;;;;;158.73;8.53;;;;;;;23.93;54.93;98619.72;7290679;19;129977;-36
2023/08/29 02:33:37;;;;;;;202.83;11.30;;;;;;;23.81;54.69;98585.22;7288193;19;130034;-37
2023/08/29 02:36:06;;;;;;;150.13;8.30;;;;;;;23.95;54.61;98601.97;7285592;19;129328;-34
2023/08/29 02:38:33;;;;;;;183.15;9.90;;;;;;;23.96;54.93;98599.19;7290773;19;133269;-36
2023/08/29 02:40:58;;;;;;;182.15;9.55;;;;;;;23.92;55.02;98589.19;7287659;19;130213;-36
2023/08/29 02:43:24;;;;;;;103.17;5.73;;;;;;;23.94;55.16;98593.28;7286984;19;130042;-36
2023/08/29 02:45:52;;;;;;;175.33;9.50;;;;;;;23.89;54.62;98603.50;7285252;19;129723;-36
2023/08/29 02:48:17;;;;;;;196.50;10.30;;;;;;;23.90;54.62;98602.50;7288729;19;129686;-36
2023/08/29 02:50:45;;;;;;;177.80;9.80;;;;;;;23.91;54.44;98606.78;7287258;19;131522;-36
2023/08/29 02:53:10;;;;;;;189.45;10.55;;;;;;;23.90;54.43;98599.88;7288787;19;130116;-36
2023/08/29 02:55:36;;;;;;;154.83;8.83;;;;;;;23.83;54.49;98577.16;7285853;19;129764;-37
2023/08/29 02:58:01;;;;;;;156.80;8.77;;;;;;;23.90;54.58;98584.13;7287785;19;129297;-36
2023/08/29 03:00:27;;;;;;;219.17;11.73;;;;;;;23.88;54.67;98580.84;7289059;19;132870;-37
2023/08/29 03:02:52;;;;;;;162.77;9.03;;;;;;;23.89;54.55;98587.75;7287409;19;130128;-36
2023/08/29 03:05:17;;;;;;;175.93;10.03;;;;;;;23.90;54.82;98594.63;7284076;19;130838;-36
2023/08/29 03:07:43;;;;;;;155.37;8.90;;;;;;;23.89;54.77;98600.88;7286711;19;129739;-36
2023/08/29 03:10:09;;;;;;;183.40;9.80;;;;;;;23.89;55.11;98614.00;7289398;19;133197;-37
2023/08/29 03:12:34;;;;;;;186.98;10.25;;;;;;;23.89;54.12;98603.50;7285634;19;130999;-36
2023/08/29 03:15:00;;;;;;;120.57;6.83;;;;;;;23.88;54.31;98601.84;7286400;19;130285;-36
2023/08/29 03:17:25;;;;;;;202.30;10.47;;;;;;;23.87;54.63;98600.25;7285097;19;129832;-36
2023/08/29 03:19:51;;;;;;;160.93;9.10;;;;;;;23.88;55.17;98595.81;7286121;19;130336;-36
2023/08/29 03:22:16;;;;;;;168.93;9.63;;;;;;;23.77;54.32;98567.34;7286066;19;130964;-36
2023/08/29 03:24:45;;;;;;;192.33;10.43;;;;;;;23.87;55.01;98581.88;7285036;19;130777;-36
2023/08/29 03:27:10;;;;;;;216.48;11.60;;;;;;;23.87;54.52;98584.50;7285886;19;131289;-36
2023/08/29 03:29:36;;;;;;;166.20;9.30;;;;;;;23.86;54.53;98580.25;7288015;19;129981;-35
2023/08/29 03:32:01;;;;;;;183.00;10.20;;;;;;;23.88;55.10;98594.00;7285192;19;129568;-36
2023/08/29 03:34:26;;;;;;;128.73;7.03;;;;;;;23.87;55.25;98589.75;7284719;19;130086;-36
2023/08/29 03:36:52;;;;;;;194.30;10.63;;;;;;;23.87;54.37;98594.16;7284707;19;129860;-36
2023/08/29 03:39:17;;;;;;;201.27;10.93;;;;;;;23.72;54.61;98580.19;7287833;19;130818;-35
2023/08/29 03:41:42;;;;;;;158.47;9.10;;;;;;;23.84;54.71;98605.84;7288082;19;132854;-36
2023/08/29 03:44:08;;;;;;;206.37;11.37;;;;;;;23.67;54.68;98587.81;7283690;19;130225;-36
2023/08/29 03:46:33;;;;;;;188.63;10.20;;;;;;;23.81;55.14;98606.22;7285205;19;130202;-36
2023/08/29 03:48:59;;;;;;;164.77;9.27;;;;;;;23.82;54.68;98607.84;7285155;19;130067;-36
2023/08/29 03:51:24;;;;;;;180.10;10.03;;;;;;;23.82;54.83;98612.25;7285676;19;129938;-35
2023/08/29 03:53:50;;;;;;;217.80;12.43;;;;;;;23.82;54.81;98613.09;7285314;19;129580;-35
2023/08/29 03:56:18;;;;;;;162.27;9.27;;;;;;;23.83;54.77;98608.66;7286480;19;130014;-36
2023/08/29 03:58:45;;;;;;;170.43;9.73;;;;;;;23.73;55.27;98566.91;7286922;19;129359;-36
2023/08/29 04:01:11;;;;;;;163.23;9.55;;;;;;;23.85;54.98;98575.97;7284632;19;135814;-36
2023/08/29 04:03:37;;;;;;;228.57;12.30;;;;;;;23.86;54.73;98566.28;7284914;19;130254;-36
2023/08/29 04:06:03;;;;;;;194.73;10.57;;;;;;;23.72;54.94;98544.28;7281860;19;130823;-36
2023/08/29 04:08:28;;;;;;;158.60;9.17;;;;;;;23.85;55.02;98564.69;7286817;19;129317;-37
2023/08/29 04:10:54;;;;;;;155.00;8.70;;;;;;;23.87;55.63;98571.38;7283214;19;129763;-37
2023/08/29 04:13:19;;;;;;;249.33;13.23;;;;;;;23.84;55.60;98569.09;7283415;19;129921;-34
2023/08/29 04:15:44;;;;;;;208.97;11.50;;;;;;;23.85;55.03;98575.97;7283331;19;130988;-35
2023/08/29 04:18:10;;;;;;;166.17;9.27;;;;;;;23.86;55.35;98582.06;7284373;19;130859;-37
2023/08/29 04:20:36;;;;;;;174.53;9.67;;;;;;;23.85;54.78;98586.47;7282591;19;130397;-37
2023/08/29 04:23:03;;;;;;;217.43;11.50;;;;;;;23.85;54.95;98589.09;7282360;19;132468;-36
2023/08/29 04:25:34;;;;;;;183.65;9.98;;;;;;;23.67;55.09;98565.00;7283221;19;130184;-36
2023/08/29 04:28:00;;;;;;;174.63;9.63;;;;;;;23.83;54.99;98583.19;7286231;19;130261;-36
2023/08/29 04:30:25;;;;;;;179.83;9.97;;;;;;;23.83;54.49;98598.94;7282927;19;129459;-36
2023/08/29 04:32:50;;;;;;;180.93;10.17;;;;;;;23.82;54.83;98601.75;7283855;19;131157;-36
2023/08/29 04:35:16;;;;;;;177.80;10.80;;;;;;;23.83;54.87;98609.44;7282306;19;129885;-36
2023/08/29 04:37:45;;;;;;;214.80;11.50;;;;;;;23.80;55.19;98607.19;7285719;19;129662;-37
2023/08/29 04:40:11;;;;;;;175.38;9.75;;;;;;;23.79;55.24;98602.13;7283285;19;130068;-36
2023/08/29 04:42:40;;;;;;;150.47;8.03;;;;;;;23.81;54.76;98587.00;7283339;19;131406;-36
2023/08/29 04:45:07;;;;;;;186.20;9.93;;;;;;;23.80;54.78;98580.94;7282716;19;131566;-35
2023/08/29 04:47:32;;;;;;;210.07;11.45;;;;;;;23.80;55.03;98569.66;7280093;19;130277;-37
2023/08/29 04:49:59;;;;;;;159.30;8.90;;;;;;;23.81;54.75;98564.22;7284800;19;130425;-35
2023/08/29 04:52:24;;;;;;;232.15;12.30;;;;;;;23.82;54.88;98568.47;7282161;19;129717;-36
2023/08/29 04:54:50;;;;;;;158.93;8.40;;;;;;;23.80;55.24;98570.44;7282867;19;129092;-36
2023/08/29 04:57:15;;;;;;;341.27;18.40;;;;;;;23.83;55.17;98575.31;7278393;19;129464;-35
2023/08/29 04:59:41;;;;;;;174.53;9.57;;;;;;;23.82;54.91;98581.59;7281806;19;130329;-36
2023/08/29 05:02:08;;;;;;;228.17;12.10;;;;;;;23.80;54.93;98577.53;7280790;19;129484;-37
2023/08/29 05:04:33;;;;;;;191.73;10.48;;;;;;;23.86;55.16;98588.13;7278100;19;129995;-37
2023/08/29 05:06:59;;;;;;;163.80;9.67;;;;;;;23.69;54.67;98570.88;7281485;19;129940;-36
2023/08/29 05:09:24;;;;;;;163.27;9.10;;;;;;;23.77;55.04;98589.19;7282150;19;131852;-36
2023/08/29 05:11:50;;;;;;;279.00;14.87;;;;;;;23.75;55.05;98601.66;7279064;19;130852;-36
2023/08/29 05:14:15;;;;;;;180.87;10.07;;;;;;;23.76;54.60;98600.69;7280990;19;129518;-36
2023/08/29 05:16:41;;;;;;;171.50;10.10;;;;;;;23.61;54.10;98583.25;7278068;19;129772;-36
2023/08/29 05:19:07;;;;;;;336.37;18.90;;;;;;;23.71;55.14;98604.81;7270752;19;130797;-35
2023/08/29 05:21:33;;;;;;;;;;;;;;;23.75;56.31;98601.66;7281072;19;129613;-36
2023/08/29 05:23:58;;;;;;;242.80;14.38;;;;;;;23.74;54.56;98592.16;7266159;19;131324;-36
2023/08/29 05:26:24;;;;;;;244.93;13.33;;;;;;;23.72;54.59;98585.44;7270356;19;130528;-36
2023/08/29 05:28:50;;;;;;;215.17;12.03;;;;;;;23.73;55.00;98592.34;7270714;19;130732;-36
2023/08/29 05:31:15;;;;;;;249.93;13.37;;;;;;;23.70;54.30;98598.75;7278190;19;130859;-36
2023/08/29 05:33:40;;;;;;;202.07;11.37;;;;;;;23.68;54.36;98595.50;7280807;19;131833;-36
2023/08/29 05:36:06;;;;;;;207.77;10.90;;;;;;;23.67;54.52;98604.34;7280734;19;130907;-36
2023/08/29 05:38:31;;;;;;;236.13;12.57;;;;;;;23.67;54.96;98609.59;7282080;19;129894;-36
2023/08/29 05:40:56;;;;;;;178.80;9.77;;;;;;;23.66;54.86;98631.59;7285071;19;131178;-36
2023/08/29 05:43:22;;;;;;;212.20;11.47;;;;;;;23.66;54.79;98631.59;7282022;19;129298;-37
2023/08/29 05:45:47;;;;;;;216.80;11.70;;;;;;;23.62;54.84;98622.44;7277439;19;130477;-36
2023/08/29 05:48:13;;;;;;;269.23;13.63;;;;;;;23.67;54.47;98625.34;7280344;19;129839;-35
2023/08/29 05:50:40;;;;;;;152.80;8.37;;;;;;;23.64;55.38;98619.63;7280897;19;130404;-36
2023/08/29 05:53:05;;;;;;;;;;;;;;;23.67;57.10;98614.84;7280722;19;130968;-35
2023/08/29 05:55:30;;;;;;;175.23;9.03;;;;;;;23.66;54.41;98609.78;7281916;19;130123;-36
2023/08/29 05:57:56;;;;;;;198.60;10.03;;;;;;;23.66;54.66;98613.22;7286639;19;131471;-37
2023/08/29 06:00:21;;;;;;;236.33;12.30;;;;;;;23.66;54.66;98622.91;7281474;19;132236;-35
2023/08/29 06:02:47;;;;;;;214.33;11.57;;;;;;;23.63;54.70;98618.84;7278963;19;130560;-37
2023/08/29 06:05:13;;;;;;;240.93;12.77;;;;;;;23.49;55.23;98595.97;7274888;19;130152;-36
2023/08/29 06:07:41;;;;;;;228.50;11.67;;;;;;;23.66;54.59;98615.84;7274267;19;130216;-37
2023/08/29 06:10:07;;;;;;;258.80;13.57;;;;;;;23.66;54.87;98617.66;7278210;19;131255;-35
2023/08/29 06:12:33;;;;;;;191.85;9.93;;;;;;;23.66;55.05;98622.91;7279637;19;131029;-36
2023/08/29 06:14:58;;;;;;;218.57;11.53;;;;;;;23.65;54.76;98621.28;7276901;19;130848;-37
2023/08/29 06:17:24;;;;;;;277.13;13.90;;;;;;;23.63;54.91;98610.97;7277032;19;132177;-36
2023/08/29 06:19:49;;;;;;;183.93;9.90;;;;;;;23.66;54.80;98613.22;7275288;19;131216;-36
2023/08/29 06:22:14;;;;;;;236.60;11.93;;;;;;;23.65;55.01;98603.72;7277732;19;129904;-37
2023/08/29 06:24:40;;;;;;;274.00;14.00;;;;;;;23.63;54.64;98597.84;7272601;19;131114;-36
2023/08/29 06:27:05;;;;;;;203.77;10.70;;;;;;;23.62;55.14;98595.41;7276651;19;131285;-37
2023/08/29 06:29:31;;;;;;;221.20;11.43;;;;;;;23.63;55.06;98602.28;7275655;19;133540;-37
2023/08/29 06:31:56;;;;;;;142.60;7.37;;;;;;;23.62;54.83;98598.81;7282978;19;130591;-36
2023/08/29 06:34:23;;;;;;;278.90;15.10;;;;;;;23.64;54.99;98601.25;7277649;19;131499;-37
2023/08/29 06:36:48;;;;;;;195.05;9.90;;;;;;;23.51;55.18;98578.25;7277070;19;131728;-36
2023/08/29 06:39:14;;;;;;;176.63;9.07;;;;;;;23.65;55.42;98595.03;7282824;19;131247;-35
2023/08/29 06:41:39;;;;;;;158.80;8.17;;;;;;;23.49;55.58;98575.00;7286301;19;131421;-36
2023/08/29 06:44:05;;;;;;;236.83;11.90;;;;;;;23.65;54.99;98601.09;7284124;19;131352;-36
2023/08/29 06:46:31;;;;;;;199.87;10.43;;;;;;;23.64;55.44;98596.84;7286760;19;129829;-34
2023/08/29 06:48:56;;;;;;;205.13;10.60;;;;;;;23.67;55.26;98601.72;7286273;19;133136;-36
2023/08/29 06:51:21;;;;;;;175.87;8.90;;;;;;;23.64;55.05;98596.84;7286429;19;129275;-36
2023/08/29 06:53:47;;;;;;;246.63;11.83;;;;;;;23.65;55.20;98603.72;7286950;19;129751;-37
2023/08/29 06:56:12;;;;;;;139.60;7.17;;;;;;;23.62;55.59;98605.91;7286612;19;129970;-36
2023/08/29 06:58:38;;;;;;;174.10;8.93;;;;;;;23.62;55.75;98616.41;7287060;19;131429;-36
2023/08/29 07:01:03;;;;;;;184.73;9.27;;;;;;;23.61;55.58;98605.06;7284357;19;129704;-37
2023/08/29 07:03:29;;;;;;;209.33;10.07;;;;;;;23.46;54.65;98585.84;7287009;19;129423;-36
2023/08/29 07:05:54;;;;;;;175.30;8.83;;;;;;;23.60;55.52;98597.38;7283402;19;129973;-36
2023/08/29 07:08:20;;;;;;;167.30;8.70;;;;;;;23.63;55.21;98603.09;7287029;19;130130;-36
2023/08/29 07:10:45;;;;;;;135.03;6.83;;;;;;;23.60;55.27;98597.38;7286502;19;129630;-42
2023/08/29 07:13:11;;;;;;;168.10;8.43;;;;;;;23.62;55.16;98606.69;7285461;19;129185;-36
2023/08/29 07:15:36;;;;;;;178.53;9.30;;;;;;;23.59;55.62;98596.56;7283699;19;131714;-36
2023/08/29 07:18:05;;;;;;;184.40;9.27;;;;;;;23.62;55.36;98609.31;7287920;19;130720;-36
2023/08/29 07:20:30;;;;;;;190.27;9.40;;;;;;;23.61;54.86;98605.06;7284362;19;130734;-36
2023/08/29 07:22:55;;;;;;;166.13;7.90;;;;;;;23.59;55.74;98609.66;7287971;19;129475;-35
2023/08/29 07:25:35;;;;;;;187.07;9.47;;;;;;;23.59;56.84;98617.53;7283287;19;130184;-36
2023/08/29 07:28:01;;;;;;;177.15;9.07;;;;;;;23.61;55.21;98626.06;7285882;19;130916;-36
2023/08/29 07:30:26;;;;;;;143.07;7.20;;;;;;;23.48;55.40;98604.03;7287503;19;129601;-36
2023/08/29 07:32:51;;;;;;;221.97;10.93;;;;;;;23.60;55.54;98613.91;7285751;19;129672;-36
2023/08/29 07:35:17;;;;;;;166.53;8.33;;;;;;;23.48;55.97;98586.47;7285568;19;130615;-36
2023/08/29 07:37:42;;;;;;;183.07;9.23;;;;;;;23.51;55.75;98588.75;7287909;19;132163;-36
2023/08/29 07:40:08;;;;;;;173.93;8.77;;;;;;;23.61;55.58;98606.88;7285381;19;129506;-36
2023/08/29 07:42:34;;;;;;;238.35;11.70;;;;;;;23.58;55.71;98610.69;7286561;19;130149;-35
2023/08/29 07:45:00;;;;;;;159.70;8.20;;;;;;;23.59;56.01;98614.91;7281163;19;130072;-36
2023/08/29 07:47:25;;;;;;;154.93;7.93;;;;;;;23.61;56.18;98614.75;7284384;19;132071;-36
2023/08/29 07:49:50;;;;;;;193.07;9.50;;;;;;;23.59;55.80;98617.53;7284454;19;129873;-37
2023/08/29 07:52:16;;;;;;;228.53;11.33;;;;;;;23.59;56.09;98616.72;7286682;19;133432;-36
2023/08/29 07:54:42;;;;;;;124.53;6.73;;;;;;;23.58;55.39;98620.34;7279605;19;129662;-36
2023/08/29 07:57:07;;;;;;;214.03;10.83;;;;;;;23.46;55.99;98604.19;7282461;19;131481;-36
2023/08/29 07:59:32;;;;;;;186.53;9.53;;;;;;;23.56;56.22;98625.78;7284483;19;129058;-33
2023/08/29 08:01:58;;;;;;;142.63;7.30;;;;;;;23.59;55.82;98633.28;7287564;19;129850;-35
2023/08/29 08:04:23;;;;;;;207.30;10.73;;;;;;;23.58;56.30;98636.91;7282045;19;129748;-36
2023/08/29 08:06:48;;;;;;;172.40;9.10;;;;;;;23.61;56.19;98631.31;7282304;19;131209;-39
2023/08/29 08:09:14;;;;;;;234.10;11.27;;;;;;;23.60;55.85;98634.91;7285888;19;130687;-36
2023/08/29 08:11:39;;;;;;;181.47;9.23;;;;;;;23.63;55.55;98629.34;7287431;19;130405;-33
2023/08/29 08:14:04;;;;;;;163.27;8.30;;;;;;;23.59;55.63;98625.41;7283730;19;130220;-34
2023/08/29 08:16:30;;;;;;;131.50;6.22;;;;;;;23.59;56.20;98622.78;7285285;19;130407;-37
2023/08/29 08:18:55;;;;;;;192.17;9.60;;;;;;;23.58;56.10;98626.41;7285356;19;129908;-37
2023/08/29 08:21:21;;;;;;;153.27;7.87;;;;;;;23.62;55.31;98627.69;7286775;19;129451;-38
2023/08/29 08:23:48;;;;;;;179.87;9.10;;;;;;;23.60;55.58;98637.53;7285309;19;131490;-35
2023/08/29 08:26:13;;;;;;;185.73;9.30;;;;;;;23.64;55.80;98638.00;7283081;19;130362;-38
2023/08/29 08:28:38;;;;;;;222.07;10.93;;;;;;;23.50;56.31;98618.63;7282432;19;130692;-34
2023/08/29 08:31:06;;;;;;;177.33;8.73;;;;;;;23.60;56.25;98629.66;7284857;19;130641;-34
2023/08/29 08:33:31;;;;;;;124.80;6.65;;;;;;;23.63;55.65;98634.59;7285168;19;129844;-38
2023/08/29 08:35:57;;;;;;;185.63;9.43;;;;;;;23.61;55.35;98625.25;7281474;19;129594;-38
2023/08/29 08:38:22;;;;;;;257.97;12.83;;;;;;;23.61;55.97;98627.84;7282821;19;131264;-37
2023/08/29 08:40:48;;;;;;;193.43;9.87;;;;;;;23.61;55.94;98620.81;7283806;19;129936;-33
2023/08/29 08:43:15;;;;;;;232.73;11.57;;;;;;;23.49;55.71;98600.41;7281774;19;132279;-34
2023/08/29 08:45:40;;;;;;;;;;;;;;;23.55;57.01;98620.69;7283875;19;132022;-37
2023/08/29 08:48:06;;;;;;;204.90;9.88;;;;;;;23.60;55.69;98623.63;7287039;19;130329;-33
2023/08/29 08:50:32;;;;;;;171.87;8.87;;;;;;;23.57;56.29;98619.53;7282454;19;129318;-36
2023/08/29 08:52:59;;;;;;;234.98;12.13;;;;;;;23.58;55.58;98626.41;7282102;19;129403;-35
2023/08/29 08:55:26;;;;;;;186.50;9.20;;;;;;;23.58;55.61;98636.91;7283570;19;130839;-35
2023/08/29 08:57:52;;;;;;;175.38;8.98;;;;;;;23.55;55.63;98632.00;7286610;19;131531;-37
2023/08/29 09:00:19;;;;;;;218.10;10.98;;;;;;;23.57;55.65;98634.47;7284725;19;129249;-39
2023/08/29 09:02:45;;;;;;;166.15;8.52;;;;;;;23.59;56.02;98632.47;7283666;19;130081;-37
2023/08/29 09:05:10;;;;;;;192.87;9.63;;;;;;;23.59;56.07;98635.91;7279485;19;129852;-40
2023/08/29 09:07:40;;;;;;;159.30;8.00;;;;;;;23.59;56.85;98633.28;7285009;19;129361;-38
2023/08/29 09:10:15;;;;;;;184.70;9.52;;;;;;;23.69;56.55;98633.03;7292462;19;129650;-39
2023/08/29 09:12:51;;;;;;;140.25;6.85;;;;;;;23.71;56.80;98631.88;7291584;19;131581;-39
2023/08/29 09:15:19;;;;;;;196.17;10.03;;;;;;;23.78;55.59;98638.06;7287221;19;129562;-36
2023/08/29 09:17:54;;;;;;;218.55;10.85;;;;;;;23.74;56.06;98634.16;7290860;19;131448;-39
2023/08/29 09:20:21;;;;;;;237.32;11.75;;;;;;;23.79;56.16;98639.69;7285705;19;129428;-40
2023/08/29 09:22:47;;;;;;;171.68;8.45;;;;;;;23.80;55.51;98638.69;7290940;19;130831;-38
2023/08/29 09:25:13;;;;;;;197.40;9.95;;;;;;;23.82;56.10;98638.50;7288617;19;131435;-41
2023/08/29 09:27:49;;;;;;;188.47;9.40;;;;;;;23.79;56.30;98650.19;7284900;19;131527;-38
2023/08/29 09:30:16;;;;;;;205.88;9.80;;;;;;;23.77;55.84;98653.97;7288837;19;130141;-36
2023/08/29 09:32:43;;;;;;;252.95;13.27;;;;;;;23.75;55.56;98656.78;7285114;19;132229;-37
2023/08/29 09:35:13;;;;;;;202.52;9.95;;;;;;;23.73;55.54;98645.66;7284455;19;132285;-39
2023/08/29 09:37:45;;;;;;;162.13;8.30;;;;;;;23.71;55.87;98642.38;7285275;19;129642;-39
2023/08/29 09:40:14;;;;;;;177.35;8.90;;;;;;;23.72;55.51;98644.00;7289156;19;130734;-37
2023/08/29 09:42:40;;;;;;;181.20;8.77;;;;;;;23.74;55.43;98644.66;7283616;19;129315;-35
2023/08/29 09:45:07;;;;;;;163.37;8.03;;;;;;;23.71;55.97;98652.88;7287091;19;130704;-38
2023/08/29 09:47:33;;;;;;;134.55;6.88;;;;;;;23.69;55.60;98654.88;7282125;19;129577;-40
2023/08/29 09:49:58;;;;;;;238.43;12.60;;;;;;;23.71;55.97;98666.00;7288157;19;129638;-40
2023/08/29 09:52:24;;;;;;;218.03;10.40;;;;;;;23.71;56.16;98663.38;7283171;19;131262;-36
2023/08/29 09:54:51;;;;;;;170.20;8.55;;;;;;;23.69;56.01;98654.88;7283707;19;130431;-37
2023/08/29 09:57:19;;;;;;;183.40;9.07;;;;;;;23.70;55.84;98659.09;7287203;19;129977;-40
2023/08/29 09:59:46;;;;;;;198.50;9.95;;;;;;;23.72;55.88;98657.13;7289272;19;132308;-40
2023/08/29 10:02:13;;;;;;;223.23;11.07;;;;;;;23.71;55.40;98642.38;7288457;19;130050;-40
2023/08/29 10:04:47;;;;;;;335.02;17.40;;;;;;;23.68;56.48;98637.50;7281700;19;130173;-35
2023/08/29 10:07:15;;;;;;;212.50;10.50;;;;;;;23.68;56.06;98640.13;7286086;19;130044;-35
2023/08/29 10:09:42;;;;;;;226.75;11.50;;;;;;;23.71;56.20;98644.19;7287746;19;130097;-39
2023/08/29 10:12:08;;;;;;;209.48;10.23;;;;;;;23.68;55.46;98642.75;7285044;19;129628;-36
2023/08/29 10:14:35;;;;;;;222.10;11.00;;;;;;;23.74;56.64;98635.97;7283737;19;130669;-37
2023/08/29 10:17:01;;;;;;;174.50;8.80;;;;;;;23.70;55.99;98643.38;7281343;19;129744;-38
2023/08/29 10:19:29;;;;;;;227.60;11.48;;;;;;;23.66;56.39;98636.84;7285413;19;129411;-35
2023/08/29 10:21:54;;;;;;;228.45;10.98;;;;;;;23.65;56.53;98635.19;7281476;19;131012;-38
2023/08/29 10:24:21;;;;;;;168.70;8.60;;;;;;;23.65;56.08;98643.06;7285204;19;129765;-37
2023/08/29 10:26:49;;;;;;;169.75;8.52;;;;;;;23.66;55.91;98628.97;7285623;19;129683;-40
2023/08/29 10:29:14;;;;;;;173.57;8.82;;;;;;;23.69;56.44;98633.88;7282927;19;131721;-37
2023/08/29 10:31:40;;;;;;;198.83;9.80;;;;;;;23.67;55.92;98625.34;7288825;19;129998;-37
2023/08/29 10:34:06;;;;;;;180.77;9.17;;;;;;;23.69;56.66;98628.63;7280379;19;130869;-38
2023/08/29 10:36:32;;;;;;;181.23;9.50;;;;;;;23.66;56.24;98626.34;7284554;19;131098;-37
2023/08/29 10:39:00;;;;;;;180.83;8.87;;;;;;;23.65;56.64;98627.31;7287598;19;129932;-37
2023/08/29 10:41:26;;;;;;;239.43;11.57;;;;;;;23.68;56.33;98632.25;7281720;19;130317;-38
2023/08/29 10:44:30;;;;;;;257.70;14.17;;;;;;;23.65;57.43;98627.31;7285429;19;129798;-38
2023/08/29 10:47:21;;;;;;;187.43;9.38;;;;;;;23.64;56.78;98630.94;7280457;19;130861;-38
2023/08/29 10:50:05;;;;;;;221.50;10.68;;;;;;;23.65;57.53;98632.56;7285726;19;130986;-37
2023/08/29 10:52:41;;;;;;;230.35;11.13;;;;;;;23.66;57.42;98639.47;7284226;19;130521;-38
2023/08/29 10:55:23;;;;;;;172.65;8.43;;;;;;;23.67;56.90;98642.91;7286287;19;129774;-38
2023/08/29 10:57:50;;;;;;;159.88;7.88;;;;;;;23.65;56.57;98627.31;7281927;19;129471;-38
2023/08/29 11:00:20;;;;;;;190.73;9.70;;;;;;;23.78;56.96;98647.75;7287242;19;131066;-38
2023/08/29 11:02:47;;;;;;;191.77;9.63;;;;;;;23.84;56.68;98650.47;7280907;19;131043;-37
2023/08/29 11:05:14;;;;;;;264.00;13.85;;;;;;;23.87;56.82;98652.75;7282971;19;130594;-38